createdAt,value
2019-04-21T00:01:57.652Z,57.59
2019-04-21T00:04:38.048Z,57.52
2019-04-21T00:07:14.495Z,58.14
2019-04-21T00:09:50.701Z,58.39
2019-04-21T00:12:13.796Z,58.36
2019-04-21T00:14:31.630Z,57.93
2019-04-21T00:16:57.485Z,58.25
2019-04-21T00:19:28.182Z,57.95
2019-04-21T00:22:04.919Z,59.27
2019-04-21T00:24:33.716Z,58.51
2019-04-21T00:27:05.305Z,55.56
2019-04-21T00:29:45.427Z,57.78
2019-04-21T00:32:03.001Z,57.20
2019-04-21T00:34:17.638Z,57.72
2019-04-21T00:36:55.969Z,58.11
2019-04-21T00:39:43.877Z,56.69
2019-04-21T00:42:08.625Z,57.33
2019-04-21T00:44:25.686Z,58.68
2019-04-21T00:46:56.400Z,57.51
2019-04-21T00:49:31.129Z,56.31
2019-04-21T00:52:38.930Z,55.43
2019-04-21T00:55:12.269Z,56.19
2019-04-21T00:57:33.791Z,56.99
2019-04-21T01:00:00.802Z,58.03
2019-04-21T01:02:27.989Z,57.82
2019-04-21T01:05:02.037Z,57.59
2019-04-21T01:07:28.176Z,57.25
2019-04-21T01:09:48.876Z,56.92
2019-04-21T01:12:26.823Z,58.31
2019-04-21T01:14:55.436Z,57.72
2019-04-21T01:17:22.853Z,56.89
2019-04-21T01:19:47.731Z,57.52
2019-04-21T01:21:58.076Z,58.67
2019-04-21T01:24:34.502Z,59.24
2019-04-21T01:27:10.061Z,60.41
2019-04-21T01:29:45.838Z,60.58
2019-04-21T01:32:24.179Z,60.36
2019-04-21T01:34:49.731Z,61.21
2019-04-21T01:37:10.898Z,61.80
2019-04-21T01:39:51.556Z,62.10
2019-04-21T01:42:15.739Z,62.44
2019-04-21T01:44:44.994Z,62.51
2019-04-21T01:47:08.625Z,63.61
2019-04-21T01:49:29.643Z,61.22
2019-04-21T01:52:17.608Z,61.65
2019-04-21T01:55:00.232Z,62.37
2019-04-21T01:57:33.394Z,62.57
2019-04-21T01:59:54.912Z,61.54
2019-04-21T02:02:29.377Z,61.57
2019-04-21T02:05:05.560Z,61.71
2019-04-21T02:07:27.044Z,62.68
2019-04-21T02:09:59.966Z,63.00
2019-04-21T02:12:26.563Z,63.87
2019-04-21T02:15:09.501Z,64.86
2019-04-21T02:17:25.099Z,64.86
2019-04-21T02:19:50.363Z,64.74
2019-04-21T02:22:27.178Z,64.21
2019-04-21T02:24:58.021Z,64.00
2019-04-21T02:27:26.598Z,63.11
2019-04-21T02:29:54.962Z,62.97
2019-04-21T02:35:03.955Z,65.59
2019-04-21T02:37:36.986Z,65.40
2019-04-21T02:42:27.821Z,64.58
2019-04-21T02:44:51.806Z,64.51
2019-04-21T02:47:37.043Z,64.25
2019-04-21T02:49:59.556Z,63.09
2019-04-21T02:54:53.435Z,66.37
2019-04-21T02:57:19.023Z,66.73
2019-04-21T03:00:00.025Z,67.04
2019-04-21T03:05:28.267Z,67.35
2019-04-21T03:07:55.324Z,67.76
2019-04-21T03:10:26.536Z,68.14
2019-04-21T03:12:45.995Z,68.83
2019-04-21T03:15:21.303Z,69.45
2019-04-21T03:18:08.257Z,69.81
2019-04-21T03:20:25.526Z,69.78
2019-04-21T03:23:07.871Z,69.39
2019-04-21T03:25:25.266Z,69.11
2019-04-21T03:28:00.796Z,68.76
2019-04-21T03:37:39.861Z,70.43
2019-04-21T03:40:18.693Z,68.70
2019-04-21T03:42:38.527Z,69.84
2019-04-21T03:45:19.954Z,69.37
2019-04-21T03:47:36.052Z,67.58
2019-04-21T03:52:42.548Z,71.08
2019-04-21T04:03:35.136Z,72.10
2019-04-21T04:06:03.741Z,73.41
2019-04-21T04:08:43.606Z,74.21
2019-04-21T04:11:05.083Z,74.87
2019-04-21T04:13:29.572Z,75.34
2019-04-21T04:15:56.443Z,76.74
2019-04-21T04:18:39.221Z,75.81
2019-04-21T04:20:53.427Z,75.79
2019-04-21T04:23:20.139Z,75.19
2019-04-21T04:25:51.569Z,74.96
2019-04-21T04:28:19.108Z,76.15
2019-04-21T04:30:52.786Z,76.77
2019-04-21T04:33:21.264Z,76.05
2019-04-21T04:38:26.424Z,75.81
2019-04-21T04:40:55.955Z,75.50
2019-04-21T04:45:56.684Z,76.00
2019-04-21T04:48:20.220Z,77.69
2019-04-21T04:53:20.337Z,77.35
2019-04-21T04:55:48.164Z,77.03
2019-04-21T04:58:44.322Z,75.78
2019-04-21T05:00:43.405Z,76.80
2019-04-21T05:03:19.181Z,77.18
2019-04-21T05:09:03.355Z,77.17
2019-04-21T05:11:30.904Z,76.35
2019-04-21T05:13:54.959Z,74.24
2019-04-21T05:16:34.631Z,73.71
2019-04-21T05:19:00.726Z,73.01
2019-04-21T05:21:24.835Z,73.17
2019-04-21T05:23:41.336Z,73.29
2019-04-21T05:26:01.587Z,73.21
2019-04-21T05:28:29.891Z,73.95
2019-04-21T05:31:19.791Z,73.40
2019-04-21T05:33:49.475Z,72.46
2019-04-21T05:36:27.864Z,71.60
2019-04-21T05:39:06.873Z,72.81
2019-04-21T05:41:26.617Z,70.29
2019-04-21T05:44:03.781Z,69.56
2019-04-21T05:46:32.254Z,67.95
2019-04-21T05:49:05.846Z,70.04
2019-04-21T05:51:30.613Z,67.66
2019-04-21T05:54:14.975Z,68.02
2019-04-21T05:56:36.530Z,67.23
2019-04-21T05:59:02.074Z,67.12
2019-04-21T06:01:46.751Z,65.08
2019-04-21T06:04:11.399Z,63.23
2019-04-21T06:06:37.546Z,60.05
2019-04-21T06:09:00.908Z,59.80
2019-04-21T06:11:30.929Z,58.16
2019-04-21T06:14:14.019Z,57.91
2019-04-21T06:16:30.368Z,57.09
2019-04-21T06:18:58.631Z,57.37
2019-04-21T06:21:27.554Z,56.33
2019-04-21T06:24:10.167Z,55.96
2019-04-21T06:28:51.810Z,53.23
2019-04-21T06:31:40.819Z,53.00
2019-04-21T06:33:48.881Z,52.73
2019-04-21T06:36:41.417Z,53.04
2019-04-21T06:44:14.239Z,51.80
2019-04-21T06:46:30.930Z,51.51
2019-04-21T06:51:27.923Z,54.00
2019-04-21T06:53:59.733Z,53.33
2019-04-21T06:56:23.816Z,53.18
2019-04-21T06:58:51.430Z,50.90
2019-04-21T07:01:26.533Z,51.73
2019-04-21T07:04:01.676Z,50.92
2019-04-21T07:06:13.165Z,49.93
2019-04-21T07:08:54.379Z,49.08
2019-04-21T07:11:08.710Z,47.96
2019-04-21T07:13:41.511Z,47.31
2019-04-21T07:16:12.020Z,47.57
2019-04-21T07:18:41.157Z,46.25
2019-04-21T07:21:08.221Z,45.00
2019-04-21T07:23:39.835Z,46.48
2019-04-21T07:26:05.686Z,46.89
2019-04-21T07:28:40.272Z,46.29
2019-04-21T07:31:15.503Z,46.55
2019-04-21T07:36:07.942Z,45.71
2019-04-21T07:38:27.231Z,45.32
2019-04-21T07:40:54.902Z,45.72
2019-04-21T07:43:24.648Z,45.97
2019-04-21T07:45:56.913Z,45.75
2019-04-21T07:48:31.308Z,45.14
2019-04-21T07:53:59.648Z,43.45
2019-04-21T07:56:06.491Z,43.67
2019-04-21T07:58:53.446Z,43.93
2019-04-21T08:01:18.263Z,43.05
2019-04-21T08:03:46.133Z,42.50
2019-04-21T08:06:18.872Z,44.02
2019-04-21T08:08:45.100Z,44.34
2019-04-21T08:11:10.961Z,42.37
2019-04-21T08:13:48.818Z,41.14
2019-04-21T08:16:12.787Z,42.64
2019-04-21T08:18:39.368Z,42.29
2019-04-21T08:21:08.600Z,42.93
2019-04-21T08:23:37.091Z,40.51
2019-04-21T08:26:12.144Z,39.25
2019-04-21T08:31:04.530Z,40.57
2019-04-21T08:33:38.707Z,39.85
2019-04-21T08:38:27.691Z,39.61
2019-04-21T08:41:01.952Z,40.21
2019-04-21T08:43:39.988Z,39.52
2019-04-21T08:46:13.842Z,39.68
2019-04-21T08:48:22.823Z,39.89
2019-04-21T08:51:12.928Z,40.18
2019-04-21T08:53:27.375Z,37.83
2019-04-21T08:56:16.453Z,37.17
2019-04-21T08:59:12.628Z,39.45
2019-04-21T09:02:01.379Z,37.19
2019-04-21T09:04:29.074Z,37.08
2019-04-21T09:07:05.160Z,38.12
2019-04-21T09:09:29.131Z,37.64
2019-04-21T09:12:01.615Z,37.13
2019-04-21T09:14:25.703Z,37.11
2019-04-21T09:16:53.655Z,36.97
2019-04-21T09:19:35.278Z,37.13
2019-04-21T09:21:57.473Z,36.64
2019-04-21T09:24:24.622Z,36.70
2019-04-21T09:26:49.253Z,36.25
2019-04-21T09:29:10.905Z,36.05
2019-04-21T09:31:36.488Z,36.67
2019-04-21T09:34:03.175Z,35.68
2019-04-21T09:36:36.929Z,35.09
2019-04-21T09:39:05.548Z,33.64
2019-04-21T09:41:28.311Z,34.16
2019-04-21T09:43:57.529Z,35.00
2019-04-21T09:46:25.464Z,34.19
2019-04-21T09:48:59.244Z,34.78
2019-04-21T09:51:21.656Z,35.29
2019-04-21T09:53:58.765Z,34.19
2019-04-21T09:56:30.492Z,32.64
2019-04-21T09:58:51.704Z,32.60
2019-04-21T10:01:22.615Z,32.75
2019-04-21T10:03:48.703Z,32.97
2019-04-21T10:06:16.107Z,32.87
2019-04-21T10:08:43.046Z,32.34
2019-04-21T10:11:10.022Z,31.31
2019-04-21T10:13:37.409Z,31.92
2019-04-21T10:16:23.884Z,32.33
2019-04-21T10:18:52.320Z,33.05
2019-04-21T10:21:19.826Z,32.09
2019-04-21T10:23:47.960Z,31.29
2019-04-21T10:26:15.012Z,31.39
2019-04-21T10:28:43.315Z,31.90
2019-04-21T10:31:11.025Z,31.80
2019-04-21T10:33:38.131Z,31.22
2019-04-21T10:36:05.163Z,30.49
2019-04-21T10:38:38.940Z,30.27
2019-04-21T10:41:01.539Z,29.80
2019-04-21T10:43:29.254Z,30.31
2019-04-21T10:45:57.083Z,30.34
2019-04-21T10:48:25.201Z,30.30
2019-04-21T10:50:52.784Z,29.35
2019-04-21T10:53:23.055Z,28.28
2019-04-21T10:56:06.110Z,32.01
2019-04-21T10:58:22.600Z,29.71
2019-04-21T11:00:52.800Z,27.99
2019-04-21T11:03:46.660Z,29.48
2019-04-21T11:06:16.894Z,29.24
2019-04-21T11:08:47.598Z,28.61
2019-04-21T11:11:13.860Z,29.78
2019-04-21T11:13:42.180Z,29.67
2019-04-21T11:16:09.157Z,30.97
2019-04-21T11:18:36.164Z,29.44
2019-04-21T11:21:04.834Z,29.22
2019-04-21T11:23:33.105Z,29.83
2019-04-21T11:26:00.272Z,30.00
2019-04-21T11:28:27.361Z,29.63
2019-04-21T11:30:54.905Z,29.75
2019-04-21T11:33:22.832Z,29.75
2019-04-21T11:35:51.223Z,30.04
2019-04-21T11:38:26.628Z,29.62
2019-04-21T11:40:51.778Z,29.36
2019-04-21T11:43:19.760Z,29.30
2019-04-21T11:45:46.798Z,29.04
2019-04-21T11:48:24.212Z,28.71
2019-04-21T11:50:51.234Z,29.17
2019-04-21T11:53:18.931Z,28.41
2019-04-21T11:55:48.537Z,27.74
2019-04-21T11:58:15.981Z,28.84
2019-04-21T12:00:45.385Z,25.95
2019-04-21T12:03:15.232Z,26.21
2019-04-21T12:05:41.501Z,26.14
2019-04-21T12:08:21.343Z,26.20
2019-04-21T12:10:37.649Z,26.16
2019-04-21T12:13:07.378Z,27.57
2019-04-21T12:15:34.660Z,27.36
2019-04-21T12:18:02.170Z,23.83
2019-04-21T12:20:30.323Z,24.70
2019-04-21T12:22:57.534Z,25.51
2019-04-21T12:25:27.231Z,26.91
2019-04-21T12:27:54.399Z,24.35
2019-04-21T12:30:21.938Z,25.34
2019-04-21T12:32:53.897Z,24.66
2019-04-21T12:35:21.857Z,24.52
2019-04-21T12:37:49.331Z,24.48
2019-04-21T12:40:16.970Z,25.71
2019-04-21T12:42:45.456Z,24.51
2019-04-21T12:45:13.098Z,24.05
2019-04-21T12:47:41.806Z,23.88
2019-04-21T12:50:11.102Z,23.49
2019-04-21T12:52:38.154Z,25.42
2019-04-21T12:55:05.850Z,23.79
2019-04-21T12:57:33.323Z,21.87
2019-04-21T13:00:02.875Z,23.34
2019-04-21T13:02:30.028Z,23.34
2019-04-21T13:04:57.789Z,23.81
2019-04-21T13:07:25.760Z,24.17
2019-04-21T13:09:54.510Z,24.26
2019-04-21T13:12:22.875Z,24.32
2019-04-21T13:14:50.124Z,23.76
2019-04-21T13:17:17.331Z,22.97
2019-04-21T13:19:45.315Z,24.13
2019-04-21T13:22:12.421Z,23.65
2019-04-21T13:24:39.928Z,23.97
2019-04-21T13:27:08.875Z,21.72
2019-04-21T13:29:36.452Z,23.33
2019-04-21T13:32:05.169Z,23.26
2019-04-21T13:34:33.764Z,23.64
2019-04-21T13:37:01.560Z,23.28
2019-04-21T13:40:06.553Z,25.55
2019-04-21T13:42:13.432Z,22.09
2019-04-21T13:44:34.949Z,23.72
2019-04-21T13:47:02.755Z,22.58
2019-04-21T13:49:29.873Z,22.62
2019-04-21T13:51:57.013Z,23.03
2019-04-21T13:54:25.458Z,22.26
2019-04-21T13:56:52.542Z,21.58
2019-04-21T13:59:20.098Z,22.18
2019-04-21T14:01:47.827Z,22.70
2019-04-21T14:04:15.844Z,22.79
2019-04-21T14:06:44.562Z,23.05
2019-04-21T14:09:11.728Z,23.23
2019-04-21T14:11:38.715Z,23.45
2019-04-21T14:14:06.122Z,22.58
2019-04-21T14:16:34.033Z,23.25
2019-04-21T14:19:01.776Z,22.99
2019-04-21T14:21:29.392Z,22.76
2019-04-21T14:23:59.100Z,23.31
2019-04-21T14:26:26.713Z,23.21
2019-04-21T14:28:54.645Z,23.97
2019-04-21T14:31:22.231Z,23.92
2019-04-21T14:33:50.045Z,23.49
2019-04-21T14:36:17.179Z,25.21
2019-04-21T14:38:44.727Z,23.85
2019-04-21T14:41:12.444Z,23.33
2019-04-21T14:43:39.602Z,23.90
2019-04-21T14:46:13.203Z,21.96
2019-04-21T14:49:05.644Z,24.09
2019-04-21T14:51:49.208Z,23.31
2019-04-21T14:54:42.715Z,20.89
2019-04-21T14:57:11.356Z,21.54
2019-04-21T14:59:39.197Z,20.67
2019-04-21T15:02:07.613Z,20.51
2019-04-21T15:04:35.630Z,21.66
2019-04-21T15:07:03.404Z,21.41
2019-04-21T15:09:31.533Z,21.22
2019-04-21T15:12:00.091Z,20.59
2019-04-21T15:14:27.319Z,22.92
2019-04-21T15:16:54.556Z,21.34
2019-04-21T15:19:22.446Z,21.96
2019-04-21T15:21:50.219Z,21.38
2019-04-21T15:24:18.347Z,21.12
2019-04-21T15:26:46.449Z,21.20
2019-04-21T15:29:15.000Z,20.47
2019-04-21T15:31:44.654Z,20.16
2019-04-21T15:34:11.299Z,20.78
2019-04-21T15:36:39.986Z,20.92
2019-04-21T15:39:07.963Z,21.55
2019-04-21T15:41:34.974Z,21.78
2019-04-21T15:44:04.081Z,21.31
2019-04-21T15:46:33.896Z,22.34
2019-04-21T15:49:00.591Z,22.53
2019-04-21T15:51:28.081Z,22.30
2019-04-21T15:53:57.578Z,22.48
2019-04-21T15:56:36.942Z,22.30
2019-04-21T15:59:32.646Z,23.21
2019-04-21T16:02:19.376Z,25.77
2019-04-21T16:04:46.609Z,27.04
2019-04-21T16:07:14.074Z,25.81
2019-04-21T16:09:41.793Z,24.95
2019-04-21T16:12:09.681Z,25.18
2019-04-21T16:14:36.882Z,25.61
2019-04-21T16:17:05.370Z,26.20
2019-04-21T16:19:33.343Z,25.77
2019-04-21T16:22:03.161Z,26.21
2019-04-21T16:24:30.902Z,26.15
2019-04-21T16:27:01.730Z,26.26
2019-04-21T16:29:27.251Z,26.23
2019-04-21T16:31:55.234Z,26.32
2019-04-21T16:34:35.390Z,25.97
2019-04-21T16:36:51.807Z,26.42
2019-04-21T16:39:19.688Z,26.84
2019-04-21T16:41:46.828Z,27.19
2019-04-21T16:44:13.802Z,27.23
2019-04-21T16:46:41.287Z,27.13
2019-04-21T16:49:09.651Z,26.88
2019-04-21T16:51:37.986Z,27.21
2019-04-21T16:54:24.317Z,27.00
2019-04-21T16:57:03.726Z,27.10
2019-04-21T16:59:35.065Z,27.44
2019-04-21T17:02:02.903Z,27.79
2019-04-21T17:04:30.697Z,27.96
2019-04-21T17:06:58.944Z,28.01
2019-04-21T17:09:26.526Z,28.07
2019-04-21T17:11:58.063Z,28.09
2019-04-21T17:14:37.177Z,27.65
2019-04-21T17:17:15.836Z,27.85
2019-04-21T17:19:27.787Z,28.38
2019-04-21T17:21:49.893Z,28.28
2019-04-21T17:24:16.989Z,28.92
2019-04-21T17:26:44.723Z,28.55
2019-04-21T17:29:14.549Z,28.79
2019-04-21T17:31:41.740Z,29.05
2019-04-21T17:34:16.241Z,29.08
2019-04-21T17:36:41.569Z,28.79
2019-04-21T17:39:09.025Z,29.12
2019-04-21T17:41:42.463Z,29.10
2019-04-21T17:44:06.553Z,29.11
2019-04-21T17:46:44.100Z,29.37
2019-04-21T17:49:03.222Z,29.55
2019-04-21T17:51:49.388Z,29.46
2019-04-21T17:54:27.616Z,29.34
2019-04-21T17:57:12.049Z,29.52
2019-04-21T17:59:52.307Z,29.57
2019-04-21T18:02:03.700Z,30.09
2019-04-21T18:04:34.842Z,30.50
2019-04-21T18:07:26.190Z,31.32
2019-04-21T18:09:59.098Z,32.13
2019-04-21T18:12:16.623Z,33.10
2019-04-21T18:14:32.926Z,33.56
2019-04-21T18:17:00.362Z,34.15
2019-04-21T18:19:30.991Z,34.74
2019-04-21T18:22:23.976Z,34.88
2019-04-21T18:25:03.017Z,35.33
2019-04-21T18:27:21.971Z,35.72
2019-04-21T18:29:52.732Z,36.07
2019-04-21T18:32:26.394Z,36.23
2019-04-21T18:35:14.203Z,36.39
2019-04-21T18:38:15.395Z,36.83
2019-04-21T18:40:38.505Z,36.94
2019-04-21T18:46:13.500Z,38.02
2019-04-21T18:48:40.951Z,38.05
2019-04-21T18:51:27.661Z,38.09
2019-04-21T18:54:22.670Z,38.38
2019-04-21T18:56:31.530Z,38.79
2019-04-21T18:58:58.737Z,38.92
2019-04-21T19:01:28.270Z,39.33
2019-04-21T19:03:56.149Z,39.56
2019-04-21T19:06:43.901Z,39.48
2019-04-21T19:09:11.594Z,39.73
2019-04-21T19:11:32.922Z,40.08
2019-04-21T19:14:29.041Z,40.44
2019-04-21T19:16:47.577Z,40.34
2019-04-21T19:19:34.171Z,40.82
2019-04-21T19:21:34.080Z,41.07
2019-04-21T19:24:20.263Z,41.51
2019-04-21T19:26:51.071Z,41.91
2019-04-21T19:29:16.319Z,41.85
2019-04-21T19:31:39.759Z,42.11
2019-04-21T19:33:55.147Z,42.18
2019-04-21T19:36:17.214Z,42.80
2019-04-21T19:38:55.920Z,42.80
2019-04-21T19:41:28.175Z,43.00
2019-04-21T19:44:02.763Z,43.15
2019-04-21T19:46:28.120Z,43.46
2019-04-21T19:49:07.245Z,43.53
2019-04-21T19:51:23.201Z,43.73
2019-04-21T19:53:52.791Z,43.88
2019-04-21T19:58:47.490Z,44.22
2019-04-21T20:01:17.265Z,44.80
2019-04-21T20:03:48.663Z,44.79
2019-04-21T20:06:28.607Z,44.75
2019-04-21T20:08:59.189Z,45.14
2019-04-21T20:11:30.585Z,45.32
2019-04-21T20:14:27.481Z,45.26
2019-04-21T20:16:33.919Z,45.31
2019-04-21T20:18:44.663Z,45.76
2019-04-21T20:21:08.024Z,45.79
2019-04-21T20:23:38.990Z,45.79
2019-04-21T20:26:08.112Z,46.23
2019-04-21T20:28:45.524Z,46.09
2019-04-21T20:31:18.893Z,45.97
2019-04-21T20:33:52.691Z,46.18
2019-04-21T20:36:21.158Z,46.48
2019-04-21T20:38:40.388Z,46.46
2019-04-21T20:41:10.953Z,46.17
2019-04-21T20:43:45.857Z,46.60
2019-04-21T20:46:12.256Z,46.56
2019-04-21T20:48:35.618Z,46.76
2019-04-21T20:51:14.484Z,46.85
2019-04-21T20:53:37.657Z,47.36
2019-04-21T20:56:02.421Z,47.56
2019-04-21T20:58:37.266Z,47.73
2019-04-21T21:01:32.977Z,47.82
2019-04-21T21:03:35.083Z,48.31
2019-04-21T21:05:58.363Z,48.77
2019-04-21T21:08:35.849Z,48.90
2019-04-21T21:10:57.505Z,48.96
2019-04-21T21:13:39.481Z,49.25
2019-04-21T21:16:11.898Z,49.35
2019-04-21T21:18:52.287Z,48.48
2019-04-21T21:20:59.097Z,48.63
2019-04-21T21:23:26.027Z,49.36
2019-04-21T21:25:55.464Z,49.64
2019-04-21T21:28:22.606Z,49.54
2019-04-21T21:30:53.061Z,50.03
2019-04-21T21:33:25.694Z,49.55
2019-04-21T21:35:49.459Z,50.23
2019-04-21T21:38:21.943Z,50.24
2019-04-21T21:40:45.521Z,50.38
2019-04-21T21:43:08.139Z,50.51
2019-04-21T21:45:39.478Z,50.61
2019-04-21T21:48:18.761Z,50.58
2019-04-21T21:50:42.367Z,49.91
2019-04-21T21:53:04.210Z,50.19
2019-04-21T21:55:27.680Z,50.32
2019-04-21T21:57:58.798Z,50.57
2019-04-21T22:00:26.248Z,50.25
2019-04-21T22:02:56.871Z,50.58
2019-04-21T22:05:26.012Z,50.74
2019-04-21T22:07:52.235Z,50.41
2019-04-21T22:10:20.142Z,50.81
2019-04-21T22:12:55.428Z,50.83
2019-04-21T22:15:22.235Z,50.86
2019-04-21T22:18:07.551Z,50.18
2019-04-21T22:20:33.335Z,50.16
2019-04-21T22:22:54.250Z,49.91
2019-04-21T22:25:20.737Z,50.35
2019-04-21T22:27:43.457Z,50.61
2019-04-21T22:30:14.669Z,50.91
2019-04-21T22:32:50.246Z,51.08
2019-04-21T22:35:22.331Z,51.07
2019-04-21T22:37:51.126Z,51.21
2019-04-21T22:40:21.918Z,51.66
2019-04-21T22:42:47.436Z,51.72
2019-04-21T22:45:09.186Z,51.72
2019-04-21T22:47:39.533Z,51.68
2019-04-21T22:50:08.539Z,51.88
2019-04-21T22:52:35.680Z,51.76
2019-04-21T22:55:08.311Z,51.77
2019-04-21T22:57:36.625Z,51.27
2019-04-21T23:00:03.906Z,51.63
2019-04-21T23:02:33.312Z,51.58
2019-04-21T23:05:00.546Z,51.32
2019-04-21T23:07:28.208Z,51.22
2019-04-21T23:09:55.531Z,50.40
2019-04-21T23:12:28.251Z,49.95
2019-04-21T23:14:58.524Z,50.22
2019-04-21T23:17:37.836Z,50.68
2019-04-21T23:20:13.269Z,50.76
2019-04-21T23:22:49.369Z,50.45
2019-04-21T23:25:09.419Z,50.98
2019-04-21T23:27:33.376Z,50.79
2019-04-21T23:30:06.397Z,51.10
2019-04-21T23:32:29.493Z,51.18
2019-04-21T23:34:44.172Z,51.19
2019-04-21T23:37:16.634Z,51.28
2019-04-21T23:39:41.545Z,51.55
2019-04-21T23:42:09.173Z,51.53
2019-04-21T23:44:41.519Z,51.11
2019-04-21T23:47:08.595Z,51.36
2019-04-21T23:49:46.206Z,51.26
2019-04-21T23:52:08.156Z,51.38
2019-04-21T23:54:33.405Z,51.11
2019-04-21T23:57:02.891Z,51.13
2019-04-21T23:59:32.842Z,51.38
